Terminal Aerodrome Forecast
Issued by NWS Shreveport, LA

Home | Current Version | Previous Version | Text Only | Print | Product List | Glossary On
Versions: 1 2 3 4 5 6 7 8 9 10 11 12
000
FTUS44 KSHV 190500
TAFSHV
TAF
KSHV 190520Z 1906/2006 VRB03KT P6SM SCT150 BKN250
     FM191100 VRB02KT P6SM BKN015
      TEMPO 1911/1915 3SM BR BKN007
     FM191700 11006KT P6SM SCT035=

USA.gov is the U.S. government's official web portal to all federal, state and local government web resources and services.